sensor_id;sensor_type;location;lat;lon;timestamp;pressure;altitude;pressure_sealevel;temperature;humidity
64739;BME280;51175;51.186;0.276;2023-10-08T00:00:27;102079.59;;;16.63;73.71
64739;BME280;51175;51.186;0.276;2023-10-08T00:01:20;102078.00;;;16.62;73.92
64739;BME280;51175;51.186;0.276;2023-10-08T00:01:51;102072.94;;;16.60;73.73
64739;BME280;51175;51.186;0.276;2023-10-08T00:02:25;102074.53;;;16.61;73.68
64739;BME280;51175;51.186;0.276;2023-10-08T00:02:56;102074.53;;;16.61;73.96
64739;BME280;51175;51.186;0.276;2023-10-08T00:03:26;102074.53;;;16.61;73.91
64739;BME280;51175;51.186;0.276;2023-10-08T00:03:59;102073.72;;;16.61;73.78
64739;BME280;51175;51.186;0.276;2023-10-08T00:04:32;102072.94;;;16.60;73.68
64739;BME280;51175;51.186;0.276;2023-10-08T00:05:11;102079.06;;;16.61;73.64
64739;BME280;51175;51.186;0.276;2023-10-08T00:05:45;102079.31;;;16.59;73.93
64739;BME280;51175;51.186;0.276;2023-10-08T00:06:20;102068.91;;;16.58;73.42
64739;BME280;51175;51.186;0.276;2023-10-08T00:06:51;102075.88;;;16.59;73.82
64739;BME280;51175;51.186;0.276;2023-10-08T00:07:25;102076.91;;;16.58;73.87
64739;BME280;51175;51.186;0.276;2023-10-08T00:07:55;102074.25;;;16.58;73.46
64739;BME280;51175;51.186;0.276;2023-10-08T00:08:26;102077.97;;;16.57;73.47
64739;BME280;51175;51.186;0.276;2023-10-08T00:08:56;102079.84;;;16.56;73.87
64739;BME280;51175;51.186;0.276;2023-10-08T00:09:38;102072.91;;;16.55;73.72
64739;BME280;51175;51.186;0.276;2023-10-08T00:10:09;102075.56;;;16.55;73.49
64739;BME280;51175;51.186;0.276;2023-10-08T00:10:40;102076.38;;;16.56;73.57
64739;BME280;51175;51.186;0.276;2023-10-08T00:11:14;102083.03;;;16.53;73.75
64739;BME280;51175;51.186;0.276;2023-10-08T00:11:46;102073.97;;;16.54;73.49
64739;BME280;51175;51.186;0.276;2023-10-08T00:12:22;102077.69;;;16.53;73.79
64739;BME280;51175;51.186;0.276;2023-10-08T00:12:52;102080.34;;;16.53;73.27
64739;BME280;51175;51.186;0.276;2023-10-08T00:13:22;102082.25;;;16.53;73.88
64739;BME280;51175;51.186;0.276;2023-10-08T00:13:53;102083.84;;;16.54;73.77
64739;BME280;51175;51.186;0.276;2023-10-08T00:14:26;102082.25;;;16.53;73.67
64739;BME280;51175;51.186;0.276;2023-10-08T00:14:58;102086.75;;;16.52;73.93
64739;BME280;51175;51.186;0.276;2023-10-08T00:15:30;102083.28;;;16.51;73.77
64739;BME280;51175;51.186;0.276;2023-10-08T00:16:02;102077.16;;;16.51;73.73
64739;BME280;51175;51.186;0.276;2023-10-08T00:16:32;102079.84;;;16.51;73.73
64739;BME280;51175;51.186;0.276;2023-10-08T00:17:03;102081.69;;;16.50;73.71
64739;BME280;51175;51.186;0.276;2023-10-08T00:17:34;102078.47;;;16.48;73.81
64739;BME280;51175;51.186;0.276;2023-10-08T00:18:05;102079.28;;;16.49;73.74
64739;BME280;51175;51.186;0.276;2023-10-08T00:18:36;102083.81;;;16.48;74.03
64739;BME280;51175;51.186;0.276;2023-10-08T00:19:12;102084.06;;;16.47;73.75
64739;BME280;51175;51.186;0.276;2023-10-08T00:19:45;102083.53;;;16.45;73.68
64739;BME280;51175;51.186;0.276;2023-10-08T00:20:15;102086.47;;;16.43;73.75
64739;BME280;51175;51.186;0.276;2023-10-08T00:20:55;102094.72;;;16.42;73.81
64739;BME280;51175;51.186;0.276;2023-10-08T00:21:41;102088.28;;;16.37;74.09
64739;BME280;51175;51.186;0.276;2023-10-08T00:22:14;102092.03;;;16.36;74.15
64739;BME280;51175;51.186;0.276;2023-10-08T00:22:48;102090.44;;;16.35;74.23
64739;BME280;51175;51.186;0.276;2023-10-08T00:23:18;102085.09;;;16.35;73.83
64739;BME280;51175;51.186;0.276;2023-10-08T00:23:49;102088.03;;;16.34;74.20
64739;BME280;51175;51.186;0.276;2023-10-08T00:24:22;102091.75;;;16.33;74.01
64739;BME280;51175;51.186;0.276;2023-10-08T00:24:57;102088.25;;;16.32;74.05
64739;BME280;51175;51.186;0.276;2023-10-08T00:25:28;102093.84;;;16.31;74.21
64739;BME280;51175;51.186;0.276;2023-10-08T00:25:58;102092.00;;;16.31;74.19
64739;BME280;51175;51.186;0.276;2023-10-08T00:26:34;102099.19;;;16.31;74.48
64739;BME280;51175;51.186;0.276;2023-10-08T00:27:10;102099.44;;;16.29;74.39
64739;BME280;51175;51.186;0.276;2023-10-08T00:27:44;102094.38;;;16.28;74.16
64739;BME280;51175;51.186;0.276;2023-10-08T00:28:15;102097.84;;;16.28;74.25
64739;BME280;51175;51.186;0.276;2023-10-08T00:28:47;102092.78;;;16.26;74.25
64739;BME280;51175;51.186;0.276;2023-10-08T00:29:17;102099.69;;;16.28;74.49
64739;BME280;51175;51.186;0.276;2023-10-08T00:29:55;102101.59;;;16.27;74.56
64739;BME280;51175;51.186;0.276;2023-10-08T00:30:26;102095.44;;;16.26;74.38
64739;BME280;51175;51.186;0.276;2023-10-08T00:31:01;102092.53;;;16.28;74.37
64739;BME280;51175;51.186;0.276;2023-10-08T00:31:43;102105.28;;;16.26;74.45
64739;BME280;51175;51.186;0.276;2023-10-08T00:32:15;102099.44;;;16.24;74.39
64739;BME280;51175;51.186;0.276;2023-10-08T00:32:47;102102.38;;;16.22;74.37
64739;BME280;51175;51.186;0.276;2023-10-08T00:33:17;102096.22;;;16.22;74.54
64739;BME280;51175;51.186;0.276;2023-10-08T00:33:52;102100.47;;;16.18;74.41
64739;BME280;51175;51.186;0.276;2023-10-08T00:34:23;102100.47;;;16.18;74.46
64739;BME280;51175;51.186;0.276;2023-10-08T00:34:57;102096.44;;;16.15;74.70
64739;BME280;51175;51.186;0.276;2023-10-08T00:35:29;102101.78;;;16.15;74.55
64739;BME280;51175;51.186;0.276;2023-10-08T00:35:59;102097.78;;;16.12;74.57
64739;BME280;51175;51.186;0.276;2023-10-08T00:36:29;102103.91;;;16.13;74.68
64739;BME280;51175;51.186;0.276;2023-10-08T00:37:00;102103.09;;;16.12;74.52
64739;BME280;51175;51.186;0.276;2023-10-08T00:37:30;102112.16;;;16.11;74.70
64739;BME280;51175;51.186;0.276;2023-10-08T00:38:01;102102.53;;;16.10;74.85
64739;BME280;51175;51.186;0.276;2023-10-08T00:38:34;102105.22;;;16.10;74.67
64739;BME280;51175;51.186;0.276;2023-10-08T00:39:05;102103.06;;;16.07;74.85
64739;BME280;51175;51.186;0.276;2023-10-08T00:39:43;102099.63;;;16.07;74.73
64739;BME280;51175;51.186;0.276;2023-10-08T00:40:14;102099.63;;;16.07;75.06
64739;BME280;51175;51.186;0.276;2023-10-08T00:40:51;102095.06;;;16.07;75.00
64739;BME280;51175;51.186;0.276;2023-10-08T00:41:28;102097.22;;;16.05;74.95
64739;BME280;51175;51.186;0.276;2023-10-08T00:42:01;102098.81;;;16.06;74.95
64739;BME280;51175;51.186;0.276;2023-10-08T00:42:34;102096.94;;;16.07;75.00
64739;BME280;51175;51.186;0.276;2023-10-08T00:43:05;102095.31;;;16.06;74.69
64739;BME280;51175;51.186;0.276;2023-10-08T00:43:40;102096.41;;;16.05;75.01
64739;BME280;51175;51.186;0.276;2023-10-08T00:44:12;102098.25;;;16.04;74.75
64739;BME280;51175;51.186;0.276;2023-10-08T00:44:44;102094.81;;;16.04;74.85
64739;BME280;51175;51.186;0.276;2023-10-08T00:45:21;102101.97;;;16.03;75.01
64739;BME280;51175;51.186;0.276;2023-10-08T00:45:51;102098.75;;;16.01;74.83
64739;BME280;51175;51.186;0.276;2023-10-08T00:46:23;102095.06;;;16.02;74.99
64739;BME280;51175;51.186;0.276;2023-10-08T00:46:57;102095.84;;;16.03;74.86
64739;BME280;51175;51.186;0.276;2023-10-08T00:47:30;102092.38;;;16.02;74.85
64739;BME280;51175;51.186;0.276;2023-10-08T00:48:04;102091.59;;;16.01;74.99
64739;BME280;51175;51.186;0.276;2023-10-08T00:48:37;102093.16;;;16.03;75.06
64739;BME280;51175;51.186;0.276;2023-10-08T00:49:07;102088.66;;;16.03;74.97
64739;BME280;51175;51.186;0.276;2023-10-08T00:49:51;102094.00;;;16.03;75.16
64739;BME280;51175;51.186;0.276;2023-10-08T00:50:36;102095.84;;;16.03;75.23
64739;BME280;51175;51.186;0.276;2023-10-08T00:51:14;102101.16;;;16.03;74.95
64739;BME280;51175;51.186;0.276;2023-10-08T00:52:12;102092.88;;;15.99;74.93
64739;BME280;51175;51.186;0.276;2023-10-08T00:52:43;102096.09;;;16.01;74.74
64739;BME280;51175;51.186;0.276;2023-10-08T00:53:27;102103.53;;;15.99;75.02
64739;BME280;51175;51.186;0.276;2023-10-08T00:54:03;102095.78;;;15.97;75.17
64739;BME280;51175;51.186;0.276;2023-10-08T00:54:40;102097.41;;;15.98;74.90
64739;BME280;51175;51.186;0.276;2023-10-08T00:55:37;102102.97;;;15.97;75.18
64739;BME280;51175;51.186;0.276;2023-10-08T00:56:10;102101.13;;;15.97;75.06
64739;BME280;51175;51.186;0.276;2023-10-08T00:56:46;102101.34;;;15.96;75.17
64739;BME280;51175;51.186;0.276;2023-10-08T00:57:19;102095.78;;;15.97;74.94
64739;BME280;51175;51.186;0.276;2023-10-08T00:57:56;102100.31;;;15.97;74.95
64739;BME280;51175;51.186;0.276;2023-10-08T00:58:28;102101.94;;;15.98;75.33
64739;BME280;51175;51.186;0.276;2023-10-08T00:58:58;102103.53;;;15.99;75.28
64739;BME280;51175;51.186;0.276;2023-10-08T00:59:33;102093.94;;;15.98;75.43
64739;BME280;51175;51.186;0.276;2023-10-08T01:00:20;102095.78;;;15.97;75.36
64739;BME280;51175;51.186;0.276;2023-10-08T01:01:02;102092.56;;;15.95;75.31
64739;BME280;51175;51.186;0.276;2023-10-08T01:01:33;102098.69;;;15.96;75.18
64739;BME280;51175;51.186;0.276;2023-10-08T01:02:05;102090.47;;;15.97;75.32
64739;BME280;51175;51.186;0.276;2023-10-08T01:02:38;102093.94;;;15.98;75.36
64739;BME280;51175;51.186;0.276;2023-10-08T01:03:22;102089.66;;;15.97;75.36
64739;BME280;51175;51.186;0.276;2023-10-08T01:03:52;102087.00;;;15.97;75.13
64739;BME280;51175;51.186;0.276;2023-10-08T01:04:25;102093.94;;;15.98;75.23
64739;BME280;51175;51.186;0.276;2023-10-08T01:04:56;102085.94;;;15.98;75.16
64739;BME280;51175;51.186;0.276;2023-10-08T01:05:27;102088.63;;;15.98;75.10
64739;BME280;51175;51.186;0.276;2023-10-08T01:06:32;102084.59;;;15.95;75.13
64739;BME280;51175;51.186;0.276;2023-10-08T01:07:04;102082.69;;;15.96;74.87
64739;BME280;51175;51.186;0.276;2023-10-08T01:07:45;102089.09;;;15.95;75.10
64739;BME280;51175;51.186;0.276;2023-10-08T01:08:18;102084.59;;;15.95;74.87
64739;BME280;51175;51.186;0.276;2023-10-08T01:08:58;102082.97;;;15.94;74.85
64739;BME280;51175;51.186;0.276;2023-10-08T01:09:38;102089.91;;;15.95;75.00
64739;BME280;51175;51.186;0.276;2023-10-08T01:10:10;102090.94;;;15.94;74.95
64739;BME280;51175;51.186;0.276;2023-10-08T01:10:41;102084.84;;;15.94;75.09
64739;BME280;51175;51.186;0.276;2023-10-08T01:11:23;102092.53;;;15.90;75.06
64739;BME280;51175;51.186;0.276;2023-10-08T01:12:22;102087.47;;;15.88;75.13
64739;BME280;51175;51.186;0.276;2023-10-08T01:13:06;102088.28;;;15.89;75.14
64739;BME280;51175;51.186;0.276;2023-10-08T01:13:45;102082.13;;;15.88;74.85
64739;BME280;51175;51.186;0.276;2023-10-08T01:14:16;102089.88;;;15.90;75.07
64739;BME280;51175;51.186;0.276;2023-10-08T01:14:54;102088.28;;;15.89;75.07
64739;BME280;51175;51.186;0.276;2023-10-08T01:15:25;102083.72;;;15.89;75.07
64739;BME280;51175;51.186;0.276;2023-10-08T01:15:58;102082.94;;;15.89;74.86
64739;BME280;51175;51.186;0.276;2023-10-08T01:16:29;102082.94;;;15.89;74.86
64739;BME280;51175;51.186;0.276;2023-10-08T01:17:04;102081.88;;;15.90;74.84
64739;BME280;51175;51.186;0.276;2023-10-08T01:17:36;102093.59;;;15.89;75.04
64739;BME280;51175;51.186;0.276;2023-10-08T01:18:16;102082.94;;;15.89;74.86
64739;BME280;51175;51.186;0.276;2023-10-08T01:18:59;102085.06;;;15.87;74.98
64739;BME280;51175;51.186;0.276;2023-10-08T01:19:30;102091.19;;;15.87;75.13
64739;BME280;51175;51.186;0.276;2023-10-08T01:20:03;102091.19;;;15.87;74.85
64739;BME280;51175;51.186;0.276;2023-10-08T01:20:50;102092.22;;;15.86;75.08
64739;BME280;51175;51.186;0.276;2023-10-08T01:21:23;102089.81;;;15.85;75.12
64739;BME280;51175;51.186;0.276;2023-10-08T01:22:09;102089.81;;;15.85;75.05
64739;BME280;51175;51.186;0.276;2023-10-08T01:22:51;102090.09;;;15.83;74.87
64739;BME280;51175;51.186;0.276;2023-10-08T01:23:22;102090.09;;;15.83;75.00
64739;BME280;51175;51.186;0.276;2023-10-08T01:23:58;102092.75;;;15.83;74.74
64739;BME280;51175;51.186;0.276;2023-10-08T01:24:30;102093.56;;;15.84;74.93
64739;BME280;51175;51.186;0.276;2023-10-08T01:25:07;102089.03;;;15.84;74.80
64739;BME280;51175;51.186;0.276;2023-10-08T01:25:45;102093.56;;;15.84;74.54
64739;BME280;51175;51.186;0.276;2023-10-08T01:26:21;102094.63;;;15.83;74.85
64739;BME280;51175;51.186;0.276;2023-10-08T01:26:53;102092.75;;;15.83;74.66
64739;BME280;51175;51.186;0.276;2023-10-08T01:27:23;102094.63;;;15.83;74.97
64739;BME280;51175;51.186;0.276;2023-10-08T01:27:57;102099.97;;;15.83;75.04
64739;BME280;51175;51.186;0.276;2023-10-08T01:28:31;102091.97;;;15.83;74.47
64739;BME280;51175;51.186;0.276;2023-10-08T01:29:03;102091.97;;;15.83;74.60
64739;BME280;51175;51.186;0.276;2023-10-08T01:29:37;102088.50;;;15.82;74.70
64739;BME280;51175;51.186;0.276;2023-10-08T01:30:07;102089.56;;;15.81;74.49
64739;BME280;51175;51.186;0.276;2023-10-08T01:30:48;102093.25;;;15.80;74.87
64739;BME280;51175;51.186;0.276;2023-10-08T01:31:23;102092.47;;;15.80;74.74
64739;BME280;51175;51.186;0.276;2023-10-08T01:31:53;102092.47;;;15.80;74.70
64739;BME280;51175;51.186;0.276;2023-10-08T01:32:25;102092.22;;;15.81;74.79
64739;BME280;51175;51.186;0.276;2023-10-08T01:32:55;102091.41;;;15.81;74.72
64739;BME280;51175;51.186;0.276;2023-10-08T01:33:26;102085.00;;;15.82;74.51
64739;BME280;51175;51.186;0.276;2023-10-08T01:34:00;102091.97;;;15.83;74.46
64739;BME280;51175;51.186;0.276;2023-10-08T01:34:33;102093.81;;;15.82;74.45
64739;BME280;51175;51.186;0.276;2023-10-08T01:35:06;102088.50;;;15.82;74.78
64739;BME280;51175;51.186;0.276;2023-10-08T01:35:52;102087.69;;;15.82;74.43
64739;BME280;51175;51.186;0.276;2023-10-08T01:36:24;102091.41;;;15.81;74.75
64739;BME280;51175;51.186;0.276;2023-10-08T01:36:56;102088.75;;;15.81;74.74
64739;BME280;51175;51.186;0.276;2023-10-08T01:37:33;102087.16;;;15.80;74.55
64739;BME280;51175;51.186;0.276;2023-10-08T01:38:04;102090.59;;;15.80;74.65
64739;BME280;51175;51.186;0.276;2023-10-08T01:38:36;102093.25;;;15.80;74.53
64739;BME280;51175;51.186;0.276;2023-10-08T01:39:07;102084.22;;;15.81;74.65
64739;BME280;51175;51.186;0.276;2023-10-08T01:39:40;102086.09;;;15.81;74.65
64739;BME280;51175;51.186;0.276;2023-10-08T01:40:12;102083.41;;;15.81;74.77
64739;BME280;51175;51.186;0.276;2023-10-08T01:40:43;102080.75;;;15.81;74.32
64739;BME280;51175;51.186;0.276;2023-10-08T01:41:21;102081.56;;;15.81;74.65
64739;BME280;51175;51.186;0.276;2023-10-08T01:42:00;102073.56;;;15.81;74.25
64739;BME280;51175;51.186;0.276;2023-10-08T01:42:31;102078.09;;;15.81;74.60
64739;BME280;51175;51.186;0.276;2023-10-08T01:43:09;102079.94;;;15.80;74.45
64739;BME280;51175;51.186;0.276;2023-10-08T01:43:40;102085.00;;;15.82;74.24
64739;BME280;51175;51.186;0.276;2023-10-08T01:44:13;102085.25;;;15.80;74.55
64739;BME280;51175;51.186;0.276;2023-10-08T01:44:45;102088.50;;;15.82;74.57
64739;BME280;51175;51.186;0.276;2023-10-08T01:45:18;102071.69;;;15.82;74.19
64739;BME280;51175;51.186;0.276;2023-10-08T01:45:49;102087.41;;;15.83;74.09
64739;BME280;51175;51.186;0.276;2023-10-08T01:46:22;102086.38;;;15.84;74.38
64739;BME280;51175;51.186;0.276;2023-10-08T01:46:54;102080.25;;;15.84;74.28
64739;BME280;51175;51.186;0.276;2023-10-08T01:47:28;102076.50;;;15.85;74.13
64739;BME280;51175;51.186;0.276;2023-10-08T01:48:00;102073.06;;;15.84;74.15
64739;BME280;51175;51.186;0.276;2023-10-08T01:48:30;102074.66;;;15.85;74.35
64739;BME280;51175;51.186;0.276;2023-10-08T01:49:07;102075.47;;;15.86;74.08
64739;BME280;51175;51.186;0.276;2023-10-08T01:49:46;102075.47;;;15.86;74.08
64739;BME280;51175;51.186;0.276;2023-10-08T01:50:17;102078.91;;;15.86;73.91
64739;BME280;51175;51.186;0.276;2023-10-08T01:50:58;102082.09;;;15.83;73.97
64739;BME280;51175;51.186;0.276;2023-10-08T01:51:39;102080.25;;;15.84;74.13
64739;BME280;51175;51.186;0.276;2023-10-08T01:52:14;102075.47;;;15.86;74.24
64739;BME280;51175;51.186;0.276;2023-10-08T01:52:51;102076.25;;;15.86;74.16
64739;BME280;51175;51.186;0.276;2023-10-08T01:53:22;102074.41;;;15.87;73.71
64739;BME280;51175;51.186;0.276;2023-10-08T01:53:53;102069.06;;;15.87;74.12
64739;BME280;51175;51.186;0.276;2023-10-08T01:54:25;102070.91;;;15.86;73.95
64739;BME280;51175;51.186;0.276;2023-10-08T01:54:56;102072.53;;;15.87;73.95
64739;BME280;51175;51.186;0.276;2023-10-08T01:55:27;102070.66;;;15.88;73.54
64739;BME280;51175;51.186;0.276;2023-10-08T01:55:58;102070.66;;;15.88;74.11
64739;BME280;51175;51.186;0.276;2023-10-08T01:56:28;102069.63;;;15.89;73.82
64739;BME280;51175;51.186;0.276;2023-10-08T01:57:00;102073.88;;;15.90;73.60
64739;BME280;51175;51.186;0.276;2023-10-08T01:57:30;102060.56;;;15.90;73.70
64739;BME280;51175;51.186;0.276;2023-10-08T01:58:01;102075.22;;;15.93;73.66
64739;BME280;51175;51.186;0.276;2023-10-08T01:58:33;102067.22;;;15.93;73.71
64739;BME280;51175;51.186;0.276;2023-10-08T01:59:04;102061.91;;;15.93;73.43
64739;BME280;51175;51.186;0.276;2023-10-08T01:59:34;102069.63;;;15.94;73.58
64739;BME280;51175;51.186;0.276;2023-10-08T02:00:05;102066.97;;;15.94;73.51
64739;BME280;51175;51.186;0.276;2023-10-08T02:00:44;102068.84;;;15.94;73.33
64739;BME280;51175;51.186;0.276;2023-10-08T02:01:19;102073.13;;;15.95;73.49
64739;BME280;51175;51.186;0.276;2023-10-08T02:01:50;102070.19;;;15.96;73.57
64739;BME280;51175;51.186;0.276;2023-10-08T02:02:25;102066.50;;;15.97;73.30
64739;BME280;51175;51.186;0.276;2023-10-08T02:02:56;102068.91;;;15.99;73.58
64739;BME280;51175;51.186;0.276;2023-10-08T02:03:29;102068.91;;;15.99;73.50
64739;BME280;51175;51.186;0.276;2023-10-08T02:03:59;102069.44;;;16.01;73.36
64739;BME280;51175;51.186;0.276;2023-10-08T02:04:30;102070.25;;;16.01;73.56
64739;BME280;51175;51.186;0.276;2023-10-08T02:05:00;102068.16;;;16.04;73.65
64739;BME280;51175;51.186;0.276;2023-10-08T02:05:31;102069.75;;;16.05;73.25
64739;BME280;51175;51.186;0.276;2023-10-08T02:06:02;102067.09;;;16.05;73.19
64739;BME280;51175;51.186;0.276;2023-10-08T02:06:36;102066.81;;;16.06;73.30
64739;BME280;51175;51.186;0.276;2023-10-08T02:07:07;102070.03;;;16.08;73.25
64739;BME280;51175;51.186;0.276;2023-10-08T02:07:43;102064.72;;;16.08;73.19
64739;BME280;51175;51.186;0.276;2023-10-08T02:08:14;102063.63;;;16.09;73.34
64739;BME280;51175;51.186;0.276;2023-10-08T02:08:47;102068.16;;;16.09;73.23
64739;BME280;51175;51.186;0.276;2023-10-08T02:09:17;102067.91;;;16.10;73.29
64739;BME280;51175;51.186;0.276;2023-10-08T02:09:55;102064.44;;;16.10;72.93
64739;BME280;51175;51.186;0.276;2023-10-08T02:10:27;102061.53;;;16.11;73.25
64739;BME280;51175;51.186;0.276;2023-10-08T02:10:59;102064.19;;;16.11;73.22
64739;BME280;51175;51.186;0.276;2023-10-08T02:11:29;102063.13;;;16.12;72.82
64739;BME280;51175;51.186;0.276;2023-10-08T02:12:00;102063.94;;;16.13;72.90
64739;BME280;51175;51.186;0.276;2023-10-08T02:12:30;102061.28;;;16.13;73.22
64739;BME280;51175;51.186;0.276;2023-10-08T02:13:01;102059.38;;;16.13;72.98
64739;BME280;51175;51.186;0.276;2023-10-08T02:13:31;102064.47;;;16.15;72.97
64739;BME280;51175;51.186;0.276;2023-10-08T02:14:04;102058.09;;;16.16;72.91
64739;BME280;51175;51.186;0.276;2023-10-08T02:14:35;102063.41;;;16.16;72.86
64739;BME280;51175;51.186;0.276;2023-10-08T02:15:06;102060.75;;;16.16;73.02
64739;BME280;51175;51.186;0.276;2023-10-08T02:15:40;102063.69;;;16.15;72.97
64739;BME280;51175;51.186;0.276;2023-10-08T02:16:11;102053.53;;;16.17;72.70
64739;BME280;51175;51.186;0.276;2023-10-08T02:16:42;102058.59;;;16.18;72.99
64739;BME280;51175;51.186;0.276;2023-10-08T02:17:13;102057.81;;;16.18;72.69
64739;BME280;51175;51.186;0.276;2023-10-08T02:17:44;102058.59;;;16.18;72.54
64739;BME280;51175;51.186;0.276;2023-10-08T02:18:14;102053.28;;;16.18;72.82
64739;BME280;51175;51.186;0.276;2023-10-08T02:18:44;102058.34;;;16.20;72.79
64739;BME280;51175;51.186;0.276;2023-10-08T02:19:16;102063.69;;;16.20;72.64
64739;BME280;51175;51.186;0.276;2023-10-08T02:19:48;102058.09;;;16.21;72.70
64739;BME280;51175;51.186;0.276;2023-10-08T02:20:22;102061.81;;;16.20;72.80
64739;BME280;51175;51.186;0.276;2023-10-08T02:20:52;102059.72;;;16.22;72.75
64739;BME280;51175;51.186;0.276;2023-10-08T02:21:23;102057.06;;;16.22;72.57
64739;BME280;51175;51.186;0.276;2023-10-08T02:21:56;102061.31;;;16.23;72.82
64739;BME280;51175;51.186;0.276;2023-10-08T02:22:29;102061.31;;;16.23;72.74
64739;BME280;51175;51.186;0.276;2023-10-08T02:22:59;102058.66;;;16.23;72.59
64739;BME280;51175;51.186;0.276;2023-10-08T02:23:30;102063.72;;;16.25;72.67
64739;BME280;51175;51.186;0.276;2023-10-08T02:24:01;102058.38;;;16.25;72.35
64739;BME280;51175;51.186;0.276;2023-10-08T02:24:33;102063.47;;;16.26;72.60
64739;BME280;51175;51.186;0.276;2023-10-08T02:25:04;102063.47;;;16.26;72.36
64739;BME280;51175;51.186;0.276;2023-10-08T02:25:35;102060.53;;;16.28;72.44
64739;BME280;51175;51.186;0.276;2023-10-08T02:26:05;102059.72;;;16.28;72.54
64739;BME280;51175;51.186;0.276;2023-10-08T02:26:36;102057.88;;;16.28;72.55
64739;BME280;51175;51.186;0.276;2023-10-08T02:27:06;102055.19;;;16.28;72.34
64739;BME280;51175;51.186;0.276;2023-10-08T02:27:37;102061.34;;;16.29;72.45
64739;BME280;51175;51.186;0.276;2023-10-08T02:28:08;102060.53;;;16.28;72.30
64739;BME280;51175;51.186;0.276;2023-10-08T02:28:43;102057.06;;;16.28;72.71
64739;BME280;51175;51.186;0.276;2023-10-08T02:29:13;102053.34;;;16.29;72.33
64739;BME280;51175;51.186;0.276;2023-10-08T02:29:45;102056.78;;;16.29;72.35
64739;BME280;51175;51.186;0.276;2023-10-08T02:30:15;102059.19;;;16.31;72.29
64739;BME280;51175;51.186;0.276;2023-10-08T02:30:45;102056.78;;;16.29;72.31
64739;BME280;51175;51.186;0.276;2023-10-08T02:31:17;102055.75;;;16.30;72.32
64739;BME280;51175;51.186;0.276;2023-10-08T02:31:48;102059.47;;;16.29;72.21
64739;BME280;51175;51.186;0.276;2023-10-08T02:32:18;102058.69;;;16.29;72.31
64739;BME280;51175;51.186;0.276;2023-10-08T02:32:51;102057.88;;;16.28;72.54
64739;BME280;51175;51.186;0.276;2023-10-08T02:33:22;102056.78;;;16.29;72.52
64739;BME280;51175;51.186;0.276;2023-10-08T02:33:53;102058.69;;;16.29;72.33
64739;BME280;51175;51.186;0.276;2023-10-08T02:34:24;102066.66;;;16.29;72.37
64739;BME280;51175;51.186;0.276;2023-10-08T02:34:55;102061.34;;;16.29;72.38
64739;BME280;51175;51.186;0.276;2023-10-08T02:35:27;102062.38;;;16.28;72.26
64739;BME280;51175;51.186;0.276;2023-10-08T02:35:57;102058.94;;;16.27;72.17
64739;BME280;51175;51.186;0.276;2023-10-08T02:36:27;102059.72;;;16.28;72.08
64739;BME280;51175;51.186;0.276;2023-10-08T02:36:58;102061.06;;;16.25;72.34
64739;BME280;51175;51.186;0.276;2023-10-08T02:37:29;102058.38;;;16.25;72.41
64739;BME280;51175;51.186;0.276;2023-10-08T02:38:00;102060.25;;;16.24;72.24
64739;BME280;51175;51.186;0.276;2023-10-08T02:38:31;102059.47;;;16.24;72.42
64739;BME280;51175;51.186;0.276;2023-10-08T02:39:08;102059.97;;;16.21;72.38
64739;BME280;51175;51.186;0.276;2023-10-08T02:40:11;102063.69;;;16.15;72.43
64739;BME280;51175;51.186;0.276;2023-10-08T02:40:56;102062.88;;;16.14;72.18
64739;BME280;51175;51.186;0.276;2023-10-08T02:41:27;102057.78;;;16.12;72.16
64739;BME280;51175;51.186;0.276;2023-10-08T02:41:59;102059.91;;;16.10;72.21
64739;BME280;51175;51.186;0.276;2023-10-08T02:42:30;102065.22;;;16.10;72.37
64739;BME280;51175;51.186;0.276;2023-10-08T02:43:01;102065.50;;;16.09;72.43
64739;BME280;51175;51.186;0.276;2023-10-08T02:43:36;102061.22;;;16.08;72.21
64739;BME280;51175;51.186;0.276;2023-10-08T02:44:07;102064.97;;;16.07;72.47
64739;BME280;51175;51.186;0.276;2023-10-08T02:44:42;102064.16;;;16.06;72.55
64739;BME280;51175;51.186;0.276;2023-10-08T02:45:12;102067.09;;;16.05;72.71
64739;BME280;51175;51.186;0.276;2023-10-08T02:45:44;102066.28;;;16.04;72.72
64739;BME280;51175;51.186;0.276;2023-10-08T02:46:17;102060.41;;;16.02;72.74
64739;BME280;51175;51.186;0.276;2023-10-08T02:46:49;102059.59;;;16.01;72.68
64739;BME280;51175;51.186;0.276;2023-10-08T02:47:21;102065.19;;;16.00;72.54
64739;BME280;51175;51.186;0.276;2023-10-08T02:47:51;102064.38;;;15.99;72.95
64739;BME280;51175;51.186;0.276;2023-10-08T02:48:22;102064.63;;;15.98;72.60
64739;BME280;51175;51.186;0.276;2023-10-08T02:48:53;102065.44;;;15.98;72.84
64739;BME280;51175;51.186;0.276;2023-10-08T02:49:23;102061.97;;;15.98;73.01
64739;BME280;51175;51.186;0.276;2023-10-08T02:49:54;102069.97;;;15.98;72.64
64739;BME280;51175;51.186;0.276;2023-10-08T02:50:24;102064.88;;;15.96;72.81
64739;BME280;51175;51.186;0.276;2023-10-08T02:51:00;102064.31;;;15.94;72.93
64739;BME280;51175;51.186;0.276;2023-10-08T02:51:42;102068.84;;;15.94;72.96
64739;BME280;51175;51.186;0.276;2023-10-08T02:52:15;102064.56;;;15.93;72.99
64739;BME280;51175;51.186;0.276;2023-10-08T02:52:45;102066.19;;;15.94;73.16
64739;BME280;51175;51.186;0.276;2023-10-08T02:53:16;102064.81;;;15.91;72.73
64739;BME280;51175;51.186;0.276;2023-10-08T02:53:51;102059.75;;;15.89;72.92
64739;BME280;51175;51.186;0.276;2023-10-08T02:54:22;102059.75;;;15.89;72.93
64739;BME280;51175;51.186;0.276;2023-10-08T02:55:02;102068.00;;;15.88;73.04
64739;BME280;51175;51.186;0.276;2023-10-08T02:55:34;102059.47;;;15.86;72.82
64739;BME280;51175;51.186;0.276;2023-10-08T02:56:05;102064.00;;;15.85;72.96
64739;BME280;51175;51.186;0.276;2023-10-08T02:56:48;102064.25;;;15.84;73.33